createdAt,value
2016-09-21T00:00:50.184Z,999.7
2016-09-21T00:02:00.162Z,999.7
2016-09-21T00:03:10.145Z,999.73
2016-09-21T00:04:20.438Z,999.72
2016-09-21T00:05:30.719Z,999.73
2016-09-21T00:06:40.699Z,999.71
2016-09-21T00:07:50.984Z,999.7
2016-09-21T00:09:01.261Z,999.71
2016-09-21T00:10:11.242Z,999.72
2016-09-21T00:11:21.524Z,999.71
2016-09-21T00:12:31.190Z,999.72
2016-09-21T00:13:41.500Z,999.75
2016-09-21T00:14:51.793Z,999.7
2016-09-21T00:16:01.775Z,999.71
2016-09-21T00:17:11.447Z,999.7
2016-09-21T00:18:21.723Z,999.71
2016-09-21T00:19:31.390Z,999.7
2016-09-21T00:20:41.376Z,999.75
2016-09-21T00:21:51.036Z,999.7
2016-09-21T00:23:01.324Z,999.66
2016-09-21T00:24:11.612Z,999.71
2016-09-21T00:25:21.903Z,999.66
2016-09-21T00:26:31.595Z,999.69
2016-09-21T00:27:41.873Z,999.68
2016-09-21T00:28:52.203Z,999.69
2016-09-21T00:30:02.178Z,999.65
2016-09-21T00:31:12.463Z,999.66
2016-09-21T00:32:22.752Z,999.65
2016-09-21T00:33:32.740Z,999.61
2016-09-21T00:34:42.413Z,999.63
2016-09-21T00:35:52.712Z,999.61
2016-09-21T00:37:02.696Z,999.64
2016-09-21T00:38:12.672Z,999.61
2016-09-21T00:39:22.640Z,999.6
2016-09-21T00:40:32.932Z,999.62
2016-09-21T00:41:43.220Z,999.6
2016-09-21T00:42:53.198Z,999.58
2016-09-21T00:44:03.170Z,999.61
2016-09-21T00:45:13.162Z,999.61
2016-09-21T00:46:22.851Z,999.62
2016-09-21T00:47:32.822Z,999.6
2016-09-21T00:48:42.801Z,999.6
2016-09-21T00:49:53.105Z,999.65
2016-09-21T00:51:03.390Z,999.64
2016-09-21T00:52:13.668Z,999.62
2016-09-21T00:53:23.643Z,999.68
2016-09-21T00:54:33.615Z,999.68
2016-09-21T00:55:43.901Z,999.65
2016-09-21T00:56:54.184Z,999.61
2016-09-21T00:58:04.167Z,999.65
2016-09-21T00:59:14.448Z,999.63
2016-09-21T01:00:24.437Z,999.65
2016-09-21T01:01:34.735Z,999.66
2016-09-21T01:02:45.022Z,999.64
2016-09-21T01:03:54.998Z,999.63
2016-09-21T01:05:05.301Z,999.61
2016-09-21T01:06:15.272Z,999.63
2016-09-21T01:07:24.933Z,999.63
2016-09-21T01:08:35.230Z,999.59
2016-09-21T01:09:45.538Z,999.61
2016-09-21T01:10:55.827Z,999.6
2016-09-21T01:12:05.814Z,999.63
2016-09-21T01:13:16.103Z,999.57
2016-09-21T01:14:26.404Z,999.54
2016-09-21T01:15:36.928Z,999.56
2016-09-21T01:16:47.201Z,999.59
2016-09-21T01:17:57.479Z,999.61
2016-09-21T01:19:07.142Z,999.54
2016-09-21T01:20:17.427Z,999.57
2016-09-21T01:21:27.709Z,999.51
2016-09-21T01:22:37.996Z,999.55
2016-09-21T01:23:48.297Z,999.55
2016-09-21T01:24:58.569Z,999.56
2016-09-21T01:26:08.863Z,999.57
2016-09-21T01:27:18.868Z,999.55
2016-09-21T01:28:28.538Z,999.54
2016-09-21T01:29:38.501Z,999.52
2016-09-21T01:30:48.784Z,999.51
2016-09-21T01:31:58.783Z,999.53
2016-09-21T01:33:08.770Z,999.54
2016-09-21T01:34:19.073Z,999.54
2016-09-21T01:35:29.383Z,999.52
2016-09-21T01:36:39.047Z,999.53
2016-09-21T01:37:49.008Z,999.56
2016-09-21T01:38:58.987Z,999.53
2016-09-21T01:40:08.975Z,999.52
2016-09-21T01:41:18.986Z,999.49
2016-09-21T01:42:28.957Z,999.51
2016-09-21T01:43:38.976Z,999.54
2016-09-21T01:44:49.270Z,999.5
2016-09-21T01:45:59.562Z,999.55
2016-09-21T01:47:09.546Z,999.52
2016-09-21T01:48:19.844Z,999.52
2016-09-21T01:49:29.825Z,999.5
2016-09-21T01:50:39.182Z,999.54
2016-09-21T01:51:49.162Z,999.54
2016-09-21T01:52:58.824Z,999.48
2016-09-21T01:54:08.802Z,999.47
2016-09-21T01:55:19.091Z,999.53
2016-09-21T01:56:29.379Z,999.51
2016-09-21T01:57:39.349Z,999.49
2016-09-21T01:58:49.343Z,999.48
2016-09-21T01:59:59.321Z,999.48
2016-09-21T02:01:09.594Z,999.47
2016-09-21T02:02:19.582Z,999.51
2016-09-21T02:03:29.565Z,999.48
2016-09-21T02:04:39.549Z,999.49
2016-09-21T02:05:49.543Z,999.53
2016-09-21T02:06:59.832Z,999.5
2016-09-21T02:08:10.144Z,999.53
2016-09-21T02:09:20.428Z,999.56
2016-09-21T02:10:30.420Z,999.6
2016-09-21T02:11:40.723Z,999.61
2016-09-21T02:12:50.703Z,999.64
2016-09-21T02:14:00.388Z,999.63
2016-09-21T02:15:10.051Z,999.64
2016-09-21T02:16:20.350Z,999.64
2016-09-21T02:17:30.643Z,999.62
2016-09-21T02:18:40.929Z,999.61
2016-09-21T02:19:50.910Z,999.61
2016-09-21T02:21:00.882Z,999.63
2016-09-21T02:22:10.849Z,999.63
2016-09-21T02:23:21.130Z,999.64
2016-09-21T02:24:30.502Z,999.67
2016-09-21T02:25:40.794Z,999.69
2016-09-21T02:26:51.101Z,999.68
2016-09-21T02:28:01.374Z,999.68
2016-09-21T02:29:11.354Z,999.67
2016-09-21T02:30:21.637Z,999.71
2016-09-21T02:31:31.909Z,999.7
2016-09-21T02:32:42.204Z,999.7
2016-09-21T02:33:52.186Z,999.7
2016-09-21T02:35:02.154Z,999.72
2016-09-21T02:36:12.139Z,999.7
2016-09-21T02:37:22.432Z,999.72
2016-09-21T02:38:32.423Z,999.74
2016-09-21T02:39:42.705Z,999.74
2016-09-21T02:40:52.687Z,999.73
2016-09-21T02:42:02.974Z,999.74
2016-09-21T02:43:13.294Z,999.74
2016-09-21T02:44:23.832Z,999.73
2016-09-21T02:45:33.806Z,999.72
2016-09-21T02:46:44.081Z,999.66
2016-09-21T02:47:54.357Z,999.73
2016-09-21T02:49:04.645Z,999.71
2016-09-21T02:50:14.332Z,999.72
2016-09-21T02:51:24.315Z,999.69
2016-09-21T02:52:34.304Z,999.67
2016-09-21T02:53:43.985Z,999.67
2016-09-21T02:54:54.272Z,999.6
2016-09-21T02:56:04.584Z,999.65
2016-09-21T02:57:14.252Z,999.62
2016-09-21T02:58:24.232Z,999.66
2016-09-21T02:59:34.196Z,999.64
2016-09-21T03:00:43.885Z,999.6
2016-09-21T03:32:18.038Z,999.65
2016-09-21T03:33:28.314Z,999.73
2016-09-21T03:34:38.621Z,999.72
2016-09-21T03:35:48.597Z,999.68
2016-09-21T03:36:58.894Z,999.7
2016-09-21T03:38:09.182Z,999.69
2016-09-21T03:39:19.470Z,999.69
2016-09-21T03:40:29.756Z,999.75
2016-09-21T03:41:40.032Z,999.73
2016-09-21T03:42:49.398Z,999.68
2016-09-21T03:43:59.686Z,999.69
2016-09-21T03:45:09.962Z,999.61
2016-09-21T03:46:19.628Z,999.62
2016-09-21T03:47:29.621Z,999.57
2016-09-21T03:48:39.896Z,999.62
2016-09-21T03:49:49.573Z,999.61
2016-09-21T03:50:59.845Z,999.57
2016-09-21T03:52:10.145Z,999.62
2016-09-21T03:53:20.133Z,999.65
2016-09-21T03:54:30.402Z,999.65
2016-09-21T03:55:40.068Z,999.66
2016-09-21T03:56:49.733Z,999.66
2016-09-21T03:57:59.418Z,999.7
2016-09-21T03:59:09.404Z,999.66
2016-09-21T04:00:19.698Z,999.68
2016-09-21T04:01:29.676Z,999.67
2016-09-21T04:02:39.662Z,999.73
2016-09-21T04:03:49.326Z,999.69
2016-09-21T04:04:59.301Z,999.69
2016-09-21T04:06:09.587Z,999.67
2016-09-21T04:07:19.865Z,999.72
2016-09-21T04:08:29.830Z,999.72
2016-09-21T04:09:39.497Z,999.68
2016-09-21T04:10:49.766Z,999.73
2016-09-21T04:12:00.063Z,999.71
2016-09-21T04:13:10.347Z,999.73
2016-09-21T04:14:20.633Z,999.72
2016-09-21T04:15:30.930Z,999.73
2016-09-21T04:16:40.279Z,999.77
2016-09-21T04:17:50.552Z,999.78
2016-09-21T04:19:00.550Z,999.78
2016-09-21T04:20:10.213Z,999.8
2016-09-21T04:21:20.188Z,999.82
2016-09-21T04:22:30.160Z,999.85
2016-09-21T04:23:40.458Z,999.83
2016-09-21T04:24:50.741Z,999.82
2016-09-21T04:26:00.710Z,999.87
2016-09-21T04:27:11.005Z,999.85
2016-09-21T04:28:21.288Z,999.84
2016-09-21T04:29:31.582Z,999.84
2016-09-21T04:30:41.882Z,999.9
2016-09-21T04:31:51.874Z,999.87
2016-09-21T04:33:02.149Z,999.85
2016-09-21T04:34:12.125Z,999.88
2016-09-21T04:35:22.115Z,999.89
2016-09-21T04:36:31.796Z,999.84
2016-09-21T04:37:41.775Z,999.84
2016-09-21T04:38:51.749Z,999.9
2016-09-21T04:40:01.728Z,999.89
2016-09-21T04:41:11.420Z,999.92
2016-09-21T04:42:21.696Z,999.93
2016-09-21T04:43:31.674Z,999.89
2016-09-21T04:44:41.649Z,999.9
2016-09-21T04:45:51.930Z,999.84
2016-09-21T04:47:02.216Z,999.83
2016-09-21T04:48:12.194Z,999.83
2016-09-21T04:49:22.172Z,999.76
2016-09-21T04:50:31.911Z,999.8
2016-09-21T04:51:42.194Z,999.79
2016-09-21T04:52:52.477Z,999.8
2016-09-21T04:54:02.763Z,999.81
2016-09-21T04:55:12.765Z,999.83
2016-09-21T04:56:22.740Z,999.83
2016-09-21T04:57:32.716Z,999.81
2016-09-21T04:58:42.690Z,999.79
2016-09-21T04:59:52.665Z,999.83
2016-09-21T05:01:02.958Z,999.82
2016-09-21T05:02:13.243Z,999.86
2016-09-21T05:03:22.927Z,999.86
2016-09-21T05:04:33.198Z,999.88
2016-09-21T05:05:43.490Z,999.82
2016-09-21T05:06:53.162Z,999.85
2016-09-21T05:08:03.463Z,999.87
2016-09-21T05:09:13.734Z,999.86
2016-09-21T05:10:24.030Z,999.89
2016-09-21T05:11:34.317Z,999.88
2016-09-21T05:12:44.290Z,999.93
2016-09-21T05:13:54.256Z,999.95
2016-09-21T05:15:04.243Z,999.97
2016-09-21T05:16:14.543Z,999.97
2016-09-21T05:17:24.212Z,999.97
2016-09-21T05:18:34.498Z,999.99
2016-09-21T05:19:44.787Z,999.99
2016-09-21T05:20:54.446Z,1000.01
2016-09-21T05:22:04.420Z,999.98
2016-09-21T05:23:14.401Z,1000
2016-09-21T05:24:24.682Z,1000.03
2016-09-21T05:25:34.652Z,1000.04
2016-09-21T05:26:44.635Z,1000.04
2016-09-21T05:27:54.627Z,1000.05
2016-09-21T05:29:04.902Z,1000.09
2016-09-21T05:30:15.205Z,1000.08
2016-09-21T05:31:25.483Z,1000.1
2016-09-21T05:32:35.154Z,1000.07
2016-09-21T05:33:44.830Z,1000.06
2016-09-21T05:34:55.112Z,1000.08
2016-09-21T05:36:05.092Z,1000.08
2016-09-21T05:37:15.374Z,1000.1
2016-09-21T05:38:25.356Z,1000.09
2016-09-21T05:39:35.668Z,1000.09
2016-09-21T05:40:45.955Z,1000.11
2016-09-21T05:41:55.925Z,1000.1
2016-09-21T05:43:06.203Z,1000.13
2016-09-21T05:44:16.504Z,1000.12
2016-09-21T05:45:26.780Z,1000.12
2016-09-21T05:46:36.767Z,1000.11
2016-09-21T05:47:46.429Z,1000.13
2016-09-21T05:48:56.711Z,1000.1
2016-09-21T05:50:06.080Z,1000.1
2016-09-21T05:51:16.426Z,1000.13
2016-09-21T05:52:26.715Z,1000.15
2016-09-21T05:53:36.383Z,1000.14
2016-09-21T05:54:46.684Z,1000.14
2016-09-21T05:55:56.662Z,1000.13
2016-09-21T05:57:06.679Z,1000.13
2016-09-21T05:58:16.675Z,1000.19
2016-09-21T05:59:26.656Z,1000.16
2016-09-21T06:00:36.642Z,1000.14
2016-09-21T06:01:46.629Z,1000.12
2016-09-21T06:02:56.913Z,1000.13
2016-09-21T06:04:07.210Z,1000.14
2016-09-21T06:05:17.486Z,1000.08
2016-09-21T06:06:27.162Z,1000.1
2016-09-21T06:07:37.129Z,1000.12
2016-09-21T06:08:47.120Z,1000.11
2016-09-21T06:09:57.092Z,1000.08
2016-09-21T06:11:06.760Z,1000.08
2016-09-21T06:12:16.739Z,1000.07
2016-09-21T06:13:26.440Z,1000.09
2016-09-21T06:14:36.419Z,1000.06
2016-09-21T06:15:46.390Z,1000.06
2016-09-21T06:16:56.374Z,1000.04
2016-09-21T06:18:06.059Z,1000.04
2016-09-21T06:19:15.721Z,1000.04
2016-09-21T06:20:25.701Z,1000.02
2016-09-21T06:21:35.699Z,1000.06
2016-09-21T06:22:45.980Z,1000.02
2016-09-21T06:23:55.652Z,1000.08
2016-09-21T06:25:05.949Z,1000.06
2016-09-21T06:26:15.929Z,1000.02
2016-09-21T06:27:26.211Z,1000.06
2016-09-21T06:28:36.191Z,1000.03
2016-09-21T06:29:46.169Z,1000.06
2016-09-21T06:30:55.837Z,1000.07
2016-09-21T06:32:05.814Z,1000.07
2016-09-21T06:33:16.105Z,1000.12
2016-09-21T06:34:26.406Z,1000.09
2016-09-21T06:35:36.405Z,1000.1
2016-09-21T06:36:46.075Z,1000.1
2016-09-21T06:37:55.747Z,1000.11
2016-09-21T06:39:06.043Z,1000.11
2016-09-21T06:40:16.019Z,1000.14
2016-09-21T06:41:26.321Z,1000.12
2016-09-21T06:42:35.994Z,1000.1
2016-09-21T06:43:45.990Z,1000.1
2016-09-21T06:44:56.276Z,1000.13
2016-09-21T06:46:06.255Z,1000.19
2016-09-21T06:47:15.636Z,1000.15
2016-09-21T06:48:25.602Z,1000.2
2016-09-21T06:49:35.888Z,1000.21
2016-09-21T06:50:45.860Z,1000.22
2016-09-21T06:51:55.531Z,1000.25
2016-09-21T06:53:05.823Z,1000.23
2016-09-21T06:54:15.784Z,1000.21
2016-09-21T06:55:25.151Z,1000.26
2016-09-21T06:56:35.437Z,1000.26
2016-09-21T06:57:45.723Z,1000.22
2016-09-21T06:58:55.704Z,1000.26
2016-09-21T07:00:05.682Z,1000.25
2016-09-21T07:01:15.978Z,1000.26
2016-09-21T07:02:25.956Z,1000.29
2016-09-21T07:03:36.252Z,1000.3
2016-09-21T07:04:45.944Z,1000.31
2016-09-21T07:05:55.924Z,1000.31
2016-09-21T07:07:05.602Z,1000.28
2016-09-21T07:08:15.888Z,1000.29
2016-09-21T07:09:25.869Z,1000.29
2016-09-21T07:10:36.147Z,1000.27
2016-09-21T07:11:46.125Z,1000.35
2016-09-21T07:12:56.440Z,1000.32
2016-09-21T07:14:06.437Z,1000.32
2016-09-21T07:15:16.413Z,1000.34
2016-09-21T07:16:26.716Z,1000.35
2016-09-21T07:17:37.003Z,1000.36
2016-09-21T07:18:47.299Z,1000.36
2016-09-21T07:19:56.961Z,1000.32
2016-09-21T07:21:06.958Z,1000.34
2016-09-21T07:22:17.247Z,1000.35
2016-09-21T07:23:27.546Z,1000.36
2016-09-21T07:24:37.827Z,1000.35
2016-09-21T07:25:48.134Z,1000.34
2016-09-21T07:26:57.814Z,1000.28
2016-09-21T07:28:07.798Z,1000.32
2016-09-21T07:29:17.481Z,1000.36
2016-09-21T07:30:27.466Z,1000.39
2016-09-21T07:31:37.761Z,1000.38
2016-09-21T07:32:47.731Z,1000.39
2016-09-21T07:33:57.734Z,1000.38
2016-09-21T07:35:07.406Z,1000.41
2016-09-21T07:36:17.717Z,1000.42
2016-09-21T07:37:28.010Z,1000.42
2016-09-21T07:38:37.981Z,1000.5
2016-09-21T07:39:47.652Z,1000.44
2016-09-21T07:40:57.940Z,1000.48
2016-09-21T07:42:07.936Z,1000.49
2016-09-21T07:43:18.216Z,1000.48
2016-09-21T07:44:28.193Z,1000.44
2016-09-21T07:45:38.475Z,1000.48
2016-09-21T07:46:48.452Z,1000.5
2016-09-21T07:47:58.129Z,1000.52
2016-09-21T07:49:08.436Z,1000.5
2016-09-21T07:50:18.739Z,1000.49
2016-09-21T07:51:28.723Z,1000.51
2016-09-21T07:52:38.705Z,1000.53
2016-09-21T07:53:48.668Z,1000.53
2016-09-21T07:54:58.645Z,1000.49
2016-09-21T07:56:08.944Z,1000.53
2016-09-21T07:57:18.937Z,1000.52
2016-09-21T07:58:28.910Z,1000.55
2016-09-21T07:59:38.903Z,1000.53
2016-09-21T08:00:48.590Z,1000.56
2016-09-21T08:01:58.573Z,1000.51
2016-09-21T08:03:08.569Z,1000.54
2016-09-21T08:04:18.865Z,1000.55
2016-09-21T08:05:29.176Z,1000.55
2016-09-21T08:06:39.158Z,1000.54
2016-09-21T08:07:49.141Z,1000.55
2016-09-21T08:08:59.443Z,1000.54
2016-09-21T08:10:09.433Z,1000.58
2016-09-21T08:11:18.793Z,1000.6
2016-09-21T08:12:28.781Z,1000.58
2016-09-21T08:13:39.080Z,1000.65
2016-09-21T08:14:49.369Z,1000.64
2016-09-21T08:15:59.667Z,1000.64
2016-09-21T08:17:09.663Z,1000.7
2016-09-21T08:18:19.953Z,1000.66
2016-09-21T08:19:29.631Z,1000.7
2016-09-21T08:20:39.941Z,1000.7
2016-09-21T08:21:50.248Z,1000.69
2016-09-21T08:23:00.555Z,1000.67
2016-09-21T08:24:10.237Z,1000.69
2016-09-21T08:25:19.916Z,1000.69
2016-09-21T08:26:30.214Z,1000.65
2016-09-21T08:27:40.512Z,1000.65
2016-09-21T08:28:50.813Z,1000.62
2016-09-21T08:30:01.115Z,1000.65
2016-09-21T08:31:11.422Z,1000.65
2016-09-21T08:32:21.759Z,1000.68
2016-09-21T08:33:31.788Z,1000.67
2016-09-21T08:34:41.812Z,1000.61
2016-09-21T08:35:52.110Z,1000.63
2016-09-21T08:37:02.632Z,1000.63
2016-09-21T08:38:13.218Z,1000.61
2016-09-21T08:39:23.939Z,1000.66
2016-09-21T08:40:34.480Z,1000.63
2016-09-21T08:41:44.756Z,1000.69
2016-09-21T08:42:55.055Z,1000.66
2016-09-21T08:44:05.396Z,1000.61
2016-09-21T08:45:15.749Z,1000.64
2016-09-21T08:46:25.758Z,1000.63
2016-09-21T08:47:36.101Z,1000.65
2016-09-21T08:48:46.428Z,1000.63
2016-09-21T08:49:56.743Z,1000.65
2016-09-21T08:51:07.054Z,1000.66
2016-09-21T08:52:17.361Z,1000.62
2016-09-21T08:53:27.731Z,1000.69
2016-09-21T08:54:38.111Z,1000.67
2016-09-21T08:55:48.415Z,1000.65
2016-09-21T08:56:58.721Z,1000.69
2016-09-21T08:58:08.696Z,1000.73
2016-09-21T08:59:18.384Z,1000.75
2016-09-21T09:00:28.406Z,1000.69
2016-09-21T09:01:38.698Z,1000.73
2016-09-21T09:02:49.332Z,1000.71
2016-09-21T09:03:58.712Z,1000.71
2016-09-21T09:05:09.027Z,1000.71
2016-09-21T09:06:19.320Z,1000.72
2016-09-21T09:07:29.636Z,1000.7
2016-09-21T09:08:39.975Z,1000.71
2016-09-21T09:09:49.979Z,1000.7
2016-09-21T09:11:00.267Z,1000.7
2016-09-21T09:12:10.551Z,1000.66
2016-09-21T09:13:20.855Z,1000.69
2016-09-21T09:14:31.162Z,1000.74
2016-09-21T09:15:41.511Z,1000.66
2016-09-21T09:16:51.493Z,1000.66
2016-09-21T09:18:01.799Z,1000.66
2016-09-21T09:19:12.099Z,1000.64
2016-09-21T09:20:21.920Z,1000.71
2016-09-21T09:21:32.229Z,1000.73
2016-09-21T09:22:42.224Z,1000.73
2016-09-21T09:23:52.527Z,1000.7
2016-09-21T09:25:02.848Z,1000.7
2016-09-21T09:26:13.131Z,1000.65
2016-09-21T09:27:23.416Z,1000.64
2016-09-21T09:28:33.746Z,1000.65
2016-09-21T09:29:44.068Z,1000.63
2016-09-21T09:30:54.371Z,1000.66
2016-09-21T09:32:04.690Z,1000.64
2016-09-21T09:33:14.991Z,1000.65
2016-09-21T09:34:25.277Z,1000.66
2016-09-21T09:35:35.578Z,1000.62
2016-09-21T09:36:45.926Z,1000.58
2016-09-21T09:37:55.908Z,1000.59
2016-09-21T09:39:06.191Z,1000.64
2016-09-21T09:40:16.185Z,1000.61
2016-09-21T09:41:26.482Z,1000.65
2016-09-21T09:42:36.794Z,1000.64
2016-09-21T09:43:47.093Z,1000.64
2016-09-21T09:44:57.383Z,1000.67
2016-09-21T09:46:07.705Z,1000.65
2016-09-21T09:47:18.000Z,1000.67
2016-09-21T09:48:28.278Z,1000.67
2016-09-21T09:49:38.585Z,1000.66
2016-09-21T09:50:48.898Z,1000.62
2016-09-21T09:51:59.198Z,1000.62
2016-09-21T09:53:09.485Z,1000.58
2016-09-21T09:54:19.462Z,1000.54
2016-09-21T09:55:29.454Z,1000.5
2016-09-21T09:56:39.440Z,1000.55
2016-09-21T09:57:49.767Z,1000.58
2016-09-21T09:58:59.753Z,1000.54
2016-09-21T10:00:10.066Z,1000.65
2016-09-21T10:01:19.428Z,1000.6
2016-09-21T10:02:29.121Z,1000.6
2016-09-21T10:03:39.456Z,1000.58
2016-09-21T10:04:49.463Z,1000.57
2016-09-21T10:05:59.445Z,1000.56
2016-09-21T10:07:09.735Z,1000.58
2016-09-21T10:08:20.043Z,1000.61
2016-09-21T10:09:30.035Z,1000.52
2016-09-21T10:10:40.351Z,1000.48
2016-09-21T10:11:50.647Z,1000.56
2016-09-21T10:13:00.940Z,1000.53
2016-09-21T10:14:11.221Z,1000.57
2016-09-21T10:15:21.003Z,1000.49
2016-09-21T10:16:31.314Z,1000.47
2016-09-21T10:17:41.312Z,1000.45
2016-09-21T10:18:51.304Z,1000.44
2016-09-21T10:20:01.580Z,1000.38
2016-09-21T10:21:11.562Z,1000.39
2016-09-21T10:22:21.869Z,1000.43
2016-09-21T10:23:31.855Z,1000.39
2016-09-21T10:24:41.870Z,1000.36
2016-09-21T10:25:51.860Z,1000.35
2016-09-21T10:27:02.160Z,1000.43
2016-09-21T10:28:12.150Z,1000.45
2016-09-21T10:29:22.455Z,1000.46
2016-09-21T10:30:32.438Z,1000.43
2016-09-21T10:31:42.721Z,1000.4
2016-09-21T10:32:53.018Z,1000.36
2016-09-21T10:34:03.315Z,1000.34
2016-09-21T10:35:13.611Z,1000.36
2016-09-21T10:36:23.913Z,1000.34
2016-09-21T10:37:33.997Z,1000.38
2016-09-21T10:38:44.296Z,1000.32
2016-09-21T10:39:54.599Z,1000.32
2016-09-21T10:41:04.900Z,1000.36
2016-09-21T10:42:15.201Z,1000.3
2016-09-21T10:43:25.479Z,1000.42
2016-09-21T10:44:35.156Z,1000.36
2016-09-21T10:45:45.460Z,1000.44
2016-09-21T10:46:55.774Z,1000.43
2016-09-21T10:48:05.753Z,1000.42
2016-09-21T10:49:16.047Z,1000.38
2016-09-21T10:50:26.343Z,1000.47
2016-09-21T10:51:36.343Z,1000.38
2016-09-21T10:52:46.653Z,1000.43
2016-09-21T10:53:56.645Z,1000.42
2016-09-21T10:55:06.634Z,1000.5
2016-09-21T10:56:16.923Z,1000.45
2016-09-21T10:57:26.901Z,1000.43
2016-09-21T10:58:37.454Z,1000.38
2016-09-21T10:59:47.778Z,1000.41
2016-09-21T11:00:57.760Z,1000.38
2016-09-21T11:02:07.766Z,1000.4
2016-09-21T11:03:18.060Z,1000.42
2016-09-21T11:04:28.365Z,1000.4
2016-09-21T11:05:38.658Z,1000.46
2016-09-21T11:06:48.334Z,1000.52
2016-09-21T11:07:58.344Z,1000.47
2016-09-21T11:09:08.347Z,1000.5
2016-09-21T11:10:18.323Z,1000.48
2016-09-21T11:11:28.325Z,1000.51
2016-09-21T11:12:38.624Z,1000.49
2016-09-21T11:13:48.926Z,1000.42
2016-09-21T11:14:59.241Z,1000.44
2016-09-21T11:16:09.542Z,1000.43
2016-09-21T11:17:19.834Z,1000.45
2016-09-21T11:18:30.130Z,1000.44
2016-09-21T11:19:40.437Z,1000.45
2016-09-21T11:20:50.118Z,1000.41
2016-09-21T11:22:00.101Z,1000.39
2016-09-21T11:23:10.408Z,1000.45
2016-09-21T11:24:20.408Z,1000.43
2016-09-21T11:25:30.406Z,1000.43
2016-09-21T11:26:40.709Z,1000.38
2016-09-21T11:27:50.700Z,1000.38
2016-09-21T11:29:00.682Z,1000.39
2016-09-21T11:30:10.663Z,1000.4
2016-09-21T11:31:20.642Z,1000.36
2016-09-21T11:32:30.633Z,1000.35
2016-09-21T11:33:40.984Z,1000.44
2016-09-21T11:34:51.283Z,1000.34
2016-09-21T11:36:01.591Z,1000.33
2016-09-21T11:37:11.894Z,1000.32
2016-09-21T11:38:21.917Z,1000.33
2016-09-21T11:39:31.592Z,1000.35
2016-09-21T11:40:41.887Z,1000.36
2016-09-21T11:41:52.120Z,1000.32
2016-09-21T11:43:01.796Z,1000.37
2016-09-21T11:44:11.784Z,1000.35
2016-09-21T11:45:21.761Z,1000.39
2016-09-21T11:46:32.057Z,1000.35
2016-09-21T11:47:42.045Z,1000.38
2016-09-21T11:48:52.247Z,1000.34
2016-09-21T11:50:02.232Z,1000.37
2016-09-21T11:51:12.525Z,1000.29
2016-09-21T11:52:22.819Z,1000.27
2016-09-21T11:53:33.129Z,1000.31
2016-09-21T11:54:43.766Z,1000.26
2016-09-21T11:55:54.056Z,1000.24
2016-09-21T11:57:04.359Z,1000.24
2016-09-21T11:58:14.674Z,1000.22
2016-09-21T11:59:25.007Z,1000.19
2016-09-21T12:00:35.302Z,1000.25
2016-09-21T12:01:45.597Z,1000.24
2016-09-21T12:02:55.888Z,1000.26
2016-09-21T12:04:05.895Z,1000.19
2016-09-21T12:05:16.210Z,1000.26
2016-09-21T12:06:26.216Z,1000.2
2016-09-21T12:07:36.299Z,1000.14
2016-09-21T12:08:46.620Z,1000.17
2016-09-21T12:09:57.142Z,1000.17
2016-09-21T12:11:07.437Z,1000.2
2016-09-21T12:12:17.737Z,1000.2
2016-09-21T12:13:28.047Z,1000.16
2016-09-21T12:14:38.366Z,1000.26
2016-09-21T12:15:48.686Z,1000.17
2016-09-21T12:16:59.029Z,1000.22
2016-09-21T12:18:09.386Z,1000.23
2016-09-21T12:19:19.373Z,1000.22
2016-09-21T12:20:29.382Z,1000.23
2016-09-21T12:21:39.702Z,1000.23
2016-09-21T12:22:49.709Z,1000.22
2016-09-21T12:24:00.300Z,1000.22
2016-09-21T12:25:10.611Z,1000.22
2016-09-21T12:26:20.895Z,1000.25
2016-09-21T12:27:30.582Z,1000.21
2016-09-21T12:28:40.567Z,1000.2
2016-09-21T12:29:50.860Z,1000.2
2016-09-21T12:31:00.841Z,1000.15
2016-09-21T12:32:10.842Z,1000.19
2016-09-21T12:33:21.139Z,1000.2
2016-09-21T12:34:31.439Z,1000.17
2016-09-21T12:35:41.744Z,1000.2
2016-09-21T12:36:52.052Z,1000.16
2016-09-21T12:38:02.060Z,1000.16
2016-09-21T12:39:12.353Z,1000.13
2016-09-21T12:40:22.650Z,1000.08
2016-09-21T12:41:32.321Z,1000.16
2016-09-21T12:42:42.616Z,1000.13
2016-09-21T12:43:52.891Z,1000.13
2016-09-21T12:45:03.190Z,1000.09
2016-09-21T12:46:13.501Z,1000.12
2016-09-21T12:47:23.798Z,1000.14
2016-09-21T12:48:33.772Z,1000.11
2016-09-21T12:49:44.097Z,1000.08
2016-09-21T12:50:54.398Z,1000.1
2016-09-21T12:52:04.374Z,1000.11
2016-09-21T12:53:14.664Z,1000.16
2016-09-21T12:54:24.974Z,1000.07
2016-09-21T12:55:35.275Z,1000.07
2016-09-21T12:56:45.269Z,1000.06
2016-09-21T12:57:55.565Z,1000.14
2016-09-21T12:59:05.885Z,1000.04
2016-09-21T13:00:16.181Z,1000
2016-09-21T13:01:26.493Z,999.98
2016-09-21T13:02:36.479Z,999.97
2016-09-21T13:03:46.774Z,1000.03
2016-09-21T13:06:07.184Z,999.99
2016-09-21T13:07:17.473Z,999.95
2016-09-21T13:08:27.774Z,999.95
2016-09-21T13:09:37.755Z,999.99
2016-09-21T13:10:48.047Z,999.96
2016-09-21T13:11:58.025Z,1000.03
2016-09-21T13:13:08.316Z,1000.03
2016-09-21T13:14:18.324Z,1000
2016-09-21T13:15:28.613Z,1000.03
2016-09-21T13:16:38.335Z,999.98
2016-09-21T13:17:48.654Z,999.97
2016-09-21T13:18:58.959Z,1000.03
2016-09-21T13:21:19.419Z,999.92
2016-09-21T13:22:29.714Z,999.92
2016-09-21T13:23:40.021Z,999.92
2016-09-21T13:24:50.336Z,999.91
2016-09-21T13:26:00.643Z,999.92
2016-09-21T13:27:10.941Z,999.87
2016-09-21T13:28:20.926Z,999.84
2016-09-21T13:29:31.335Z,999.88
2016-09-21T13:30:41.642Z,999.85
2016-09-21T13:31:51.952Z,999.8
2016-09-21T13:33:01.975Z,999.88
2016-09-21T13:34:12.275Z,999.84
2016-09-21T13:35:22.588Z,999.77
2016-09-21T13:36:32.889Z,999.83
2016-09-21T13:37:43.203Z,999.9
2016-09-21T13:38:53.513Z,999.86
2016-09-21T13:40:03.810Z,999.77
2016-09-21T13:41:14.114Z,999.79
2016-09-21T13:42:23.786Z,999.75
2016-09-21T13:43:34.083Z,999.74
2016-09-21T13:44:44.077Z,999.77
2016-09-21T13:45:54.401Z,999.79
2016-09-21T13:47:04.719Z,999.78
2016-09-21T13:48:15.037Z,999.76
2016-09-21T13:49:25.035Z,999.79
2016-09-21T13:50:35.338Z,999.76
2016-09-21T13:51:45.630Z,999.8
2016-09-21T13:52:55.940Z,999.74
2016-09-21T13:54:05.927Z,999.74
2016-09-21T13:55:16.241Z,999.74
2016-09-21T13:57:36.132Z,999.63
2016-09-21T13:58:46.429Z,999.68
2016-09-21T13:59:56.715Z,999.62
2016-09-21T14:01:07.018Z,999.61
2016-09-21T14:02:17.330Z,999.65
2016-09-21T14:03:27.628Z,999.65
2016-09-21T14:04:37.933Z,999.62
2016-09-21T14:05:48.225Z,999.62
2016-09-21T14:06:58.533Z,999.58
2016-09-21T14:08:08.837Z,999.57
2016-09-21T14:09:18.818Z,999.61
2016-09-21T14:10:29.109Z,999.59
2016-09-21T14:11:39.394Z,999.59
2016-09-21T14:12:49.684Z,999.56
2016-09-21T14:13:59.686Z,999.53
2016-09-21T14:15:09.989Z,999.55
2016-09-21T14:16:20.290Z,999.59
2016-09-21T14:17:30.606Z,999.52
2016-09-21T14:18:40.591Z,999.54
2016-09-21T14:19:50.577Z,999.48
2016-09-21T14:21:00.568Z,999.48
2016-09-21T14:22:10.870Z,999.49
2016-09-21T14:23:20.900Z,999.54
2016-09-21T14:24:30.902Z,999.49
2016-09-21T14:25:41.155Z,999.51
2016-09-21T14:26:51.443Z,999.53
2016-09-21T14:28:01.754Z,999.47
2016-09-21T14:29:11.735Z,999.46
2016-09-21T14:30:22.026Z,999.45
2016-09-21T14:31:32.018Z,999.37
2016-09-21T14:32:42.024Z,999.45
2016-09-21T14:33:52.306Z,999.45
2016-09-21T14:35:02.298Z,999.44
2016-09-21T14:36:12.619Z,999.46
2016-09-21T14:37:22.601Z,999.38
2016-09-21T14:38:32.903Z,999.46
2016-09-21T14:39:42.924Z,999.4
2016-09-21T14:40:52.623Z,999.43
2016-09-21T14:42:02.637Z,999.41
2016-09-21T14:43:12.945Z,999.44
2016-09-21T14:44:22.937Z,999.41
2016-09-21T14:45:32.925Z,999.43
2016-09-21T14:46:42.922Z,999.45
2016-09-21T14:47:53.227Z,999.43
2016-09-21T14:49:03.228Z,999.4
2016-09-21T14:50:13.235Z,999.44
2016-09-21T14:51:23.208Z,999.36
2016-09-21T14:52:33.181Z,999.36
2016-09-21T14:53:43.495Z,999.36
2016-09-21T14:54:53.528Z,999.4
2016-09-21T14:56:03.368Z,999.37
2016-09-21T14:57:13.092Z,999.36